Neder Vindinge, Denmark
Current Conditions -  °F | °C
As of 4:50 AM on Wednesday 28 Jan 2015 (Local Time) from EKRK Reporting Station
Moderate Fog Moderate Fog  
Wind Chill: 29°   Ceiling: 200
Heat Index: 36°   Visibility: 0.34mi
Dew Point: 36°   Wind: 8mph
Humidity: 100%   Direction: 220°SW
Pressure: 29.77"   Gusts: NA
Location:  55.03°N, 11.88°E
Report Text: EKRK 280350Z AUTO 22007KT 0550NDV R11/P1500D R29/P1500NFG VV002 02/02 Q1008 R88/CLRD//
Loading
Personal Weather Stations






























Interactive Weather Map New forecast layout! Learn more

10-Day Weather Forecast

Advertisements
Track Severe Weather on mobile